Latest Weather Observations for Hobart Airport

IDT60801

Issued at 1:41 pm EDT Wednesday 16 January 2019 (issued every 10 minutes, with the page automatically refreshed every 10 minutes)

About weather observations | Map of weather stations | Latest weather observations for TAS | Other Formats
Station Details ID: 094008 Name: HOBART AIRPORT Lat: -42.83 Lon: 147.50 Height: 4.0 m
Data from the previous 72 hours. | See also: Recent months at Hobart Airport
Date/Time
EDT
Temp
°C
App
Temp
°C
Dew
Point
°C
Rel
Hum
%
Delta-T
°C
Wind Press
QNH
hPa
Press
MSL
hPa
Rain since
9am
mm
Dir  Spd
km/h
Gust
km/h
Spd
kts
Gust
kts
16/01:30pm 19.9 15.4 10.0 53 5.3 SSE 24 30 13 16 1011.7 1011.6 0.0
16/01:00pm 18.7 14.3 10.3 58 4.5 SSE 24 30 13 16 1011.8 1011.7 0.0
16/12:30pm 19.3 14.8 10.2 55 4.9 SSE 24 32 13 17 1012.0 1011.9 0.0
16/12:00pm 19.1 13.7 11.0 59 4.4 S 30 37 16 20 1011.7 1011.6 0.0
16/11:30am 19.0 14.1 11.3 61 4.2 SSE 28 33 15 18 1012.0 1011.9 0.0
16/11:00am 18.5 13.6 11.2 62 4.0 SSE 28 33 15 18 1011.8 1011.7 0.0
16/10:30am 19.1 14.6 11.5 61 4.2 SSE 26 33 14 18 1011.6 1011.5 0.0
16/10:00am 18.1 13.9 9.8 58 4.4 SSE 22 30 12 16 1011.7 1011.6 0.0
16/09:30am 18.0 14.2 9.9 59 4.3 SSE 20 26 11 14 1011.4 1011.3 0.0
16/09:00am 17.9 14.2 10.0 60 4.2 SSE 20 28 11 15 1011.0 1010.9 0.4
16/08:30am 17.6 14.1 10.1 61 4.0 SSE 19 26 10 14 1010.8 1010.7 0.4
16/08:00am 17.2 13.7 10.2 63 3.7 SSE 19 24 10 13 1010.5 1010.4 0.4
16/07:30am 16.8 13.8 10.8 67 3.2 SE 17 24 9 13 1010.1 1010.0 0.4
16/07:00am 16.6 13.4 11.2 70 2.9 SSE 19 26 10 14 1009.7 1009.6 0.4
16/06:49am 16.5 13.2 11.5 72 2.7 SSE 20 26 11 14 1009.6 1009.5 0.4
16/06:30am 16.5 13.9 11.9 74 2.5 SSE 17 19 9 10 1009.4 1009.3 0.4
16/06:00am 16.7 14.3 12.6 77 2.3 SSE 17 22 9 12 1009.2 1009.1 0.4
16/05:30am 16.8 15.1 13.6 81 1.8 SSE 15 19 8 10 1009.0 1008.9 0.4
16/05:00am 16.5 15.8 14.2 86 1.3 SSW 11 13 6 7 1008.8 1008.7 0.4
16/04:30am 16.1 16.7 14.2 88 1.1 WNW 4 9 2 5 1008.5 1008.4 0.4
16/04:08am 15.0 15.9 13.0 88 1.1 CALM 0 0 0 0 1008.3 1008.2 0.4
16/04:00am 14.7 14.9 12.9 89 1.0 N 4 9 2 5 1008.3 1008.2 0.4
16/03:32am 14.3 15.1 12.5 89 1.0 CALM 0 0 0 0 1008.3 1008.2 0.4
16/03:30am 14.5 15.3 12.5 88 1.1 CALM 0 0 0 0 1008.2 1008.1 0.4
16/03:00am 15.8 16.5 13.3 85 1.4 SW 2 7 1 4 1008.1 1008.0 0.4
16/02:30am 15.5 16.6 13.4 87 1.2 CALM 0 0 0 0 1008.0 1007.9 0.4
16/02:00am 16.1 17.2 13.4 84 1.5 CALM 0 0 0 0 1008.0 1007.9 0.4
16/01:30am 17.2 17.0 13.7 80 2.0 S 7 9 4 5 1008.1 1008.0 0.4
16/01:00am 16.8 17.2 13.6 81 1.8 NW 4 6 2 3 1007.9 1007.8 0.4
16/12:30am 16.8 17.7 12.9 78 2.2 CALM 0 0 0 0 1007.7 1007.6 0.4
16/12:00am 17.8 18.3 12.8 72 2.8 WNW 2 6 1 3 1007.5 1007.4 0.4
 
Date/Time
EDT
Temp
°C
App
Temp
°C
Dew
Point
°C
Rel
Hum
%
Delta-T
°C
Wind Press
QNH
hPa
Press
MSL
hPa
Rain since
9am
mm
Dir  Spd
km/h
Gust
km/h
Spd
kts
Gust
kts
15/11:30pm 18.7 18.1 12.2 66 3.6 SW 7 9 4 5 1007.2 1007.1 0.4
15/11:00pm 18.5 17.2 12.6 68 3.3 SSW 11 13 6 7 1006.9 1006.8 0.4
15/10:30pm 18.6 17.1 13.1 70 3.1 SSW 13 15 7 8 1006.7 1006.6 0.4
15/10:00pm 19.0 18.7 13.2 69 3.3 S 7 13 4 7 1006.3 1006.2 0.4
15/09:30pm 19.1 18.1 13.5 70 3.2 SSW 11 15 6 8 1006.2 1006.1 0.4
15/09:07pm 19.4 18.7 13.3 68 3.5 SSE 9 13 5 7 1005.8 1005.7 0.4
15/09:00pm 20.3 19.3 13.3 64 4.0 SSE 11 13 6 7 1005.9 1005.8 0.4
15/08:45pm 20.6 18.9 12.3 59 4.7 WSW 13 22 7 12 1007.2 1007.1 0.4
15/08:40pm 21.1 18.6 10.9 52 5.6 SW 15 22 8 12 1006.8 1006.7 0.0
15/08:39pm 21.0 18.5 11.0 52 5.5 SSW 15 22 8 12 1006.7 1006.6 0.0
15/08:30pm 20.9 17.9 10.7 52 5.6 S 17 26 9 14 1005.9 1005.8 0.0
15/08:00pm 20.8 18.7 11.2 54 5.3 SSE 13 24 7 13 1005.9 1005.8 0.0
15/07:42pm 20.9 17.5 11.1 53 5.4 SE 20 28 11 15 1004.8 1004.7 0.0
15/07:30pm 21.3 17.8 11.0 51 5.7 S 20 30 11 16 1006.8 1006.7 0.0
15/07:00pm 22.7 17.2 10.6 46 6.7 S 30 37 16 20 1006.4 1006.3 0.0
15/06:30pm 24.4 19.4 10.8 42 7.6 S 28 33 15 18 1005.0 1004.9 0.0
15/06:00pm 25.1 20.3 11.8 43 7.6 S 28 35 15 19 1005.0 1004.9 0.0
15/05:30pm 25.5 20.9 11.2 40 8.1 S 26 32 14 17 1005.0 1004.9 0.0
15/05:00pm 24.4 18.9 10.6 41 7.7 S 30 37 16 20 1005.2 1005.1 0.0
15/04:30pm 24.4 18.5 10.4 41 7.8 S 32 41 17 22 1005.5 1005.4 0.0
15/04:00pm 27.0 22.5 12.6 41 8.4 S 28 35 15 19 1005.9 1005.8 0.0
15/03:30pm 25.5 20.9 14.7 51 6.5 S 32 39 17 21 1006.1 1006.0 0.0
15/03:00pm 24.7 19.3 12.1 45 7.2 S 32 39 17 21 1006.1 1006.0 0.0
15/02:30pm 25.2 19.7 11.7 43 7.7 S 32 39 17 21 1006.8 1006.7 0.0
15/02:00pm 25.3 20.4 11.4 41 7.9 SSE 28 35 15 19 1007.6 1007.5 0.0
15/01:30pm 24.2 20.7 13.4 51 6.3 SSE 24 32 13 17 1008.1 1008.0 0.0
15/01:00pm 24.0 20.8 15.2 58 5.3 SSE 26 32 14 17 1008.0 1007.9 0.0
15/12:30pm 24.6 22.4 15.9 58 5.3 SSE 22 28 12 15 1008.1 1008.0 0.0
15/12:00pm 26.3 24.1 14.9 49 6.9 SSE 20 26 11 14 1008.0 1007.9 0.0
15/11:30am 25.4 24.0 16.5 58 5.5 SE 19 22 10 12 1008.3 1008.2 0.0
15/11:00am 25.3 24.0 16.9 59 5.2 SSE 19 24 10 13 1008.7 1008.6 0.0
15/10:30am 25.9 25.6 14.5 49 6.8 N 9 15 5 8 1009.2 1009.1 0.0
15/10:00am 24.8 24.9 15.6 56 5.6 NNW 9 15 5 8 1009.6 1009.5 0.0
15/09:30am 23.5 23.3 15.7 61 4.7 NW 11 15 6 8 1009.9 1009.8 0.0
15/09:00am 22.0 21.6 16.2 69 3.5 NW 13 17 7 9 1010.2 1010.1 0.0
15/08:30am 21.0 20.5 15.8 72 3.1 NNW 13 15 7 8 1010.5 1010.4 0.0
15/08:00am 19.9 19.8 16.1 79 2.3 NW 11 13 6 7 1010.5 1010.4 0.0
15/07:30am 18.6 18.2 16.1 85 1.5 N 13 17 7 9 1010.6 1010.5 0.0
15/07:00am 18.6 19.0 16.3 86 1.4 NW 9 11 5 6 1010.4 1010.3 0.0
15/06:30am 18.0 17.5 16.0 88 1.2 NW 13 17 7 9 1010.5 1010.4 0.0
15/06:00am 17.5 17.3 15.8 90 1.0 NW 11 15 6 8 1010.5 1010.4 0.0
15/05:30am 17.3 17.7 15.4 88 1.1 SW 7 9 4 5 1010.2 1010.1 0.0
15/05:00am 17.9 17.8 16.0 89 1.1 SW 11 13 6 7 1010.2 1010.1 0.0
15/04:58am 18.0 17.9 16.0 88 1.2 SW 11 13 6 7 1010.1 1010.0 0.0
15/04:30am 18.0 18.9 16.2 89 1.1 SSE 6 9 3 5 1009.7 1009.6 0.0
15/04:00am 18.2 17.4 16.0 87 1.3 SSW 15 20 8 11 1010.2 1010.1 0.0
15/03:30am 18.3 17.0 15.9 86 1.4 SW 17 20 9 11 1010.8 1010.7 0.0
15/03:00am 18.4 19.0 15.7 84 1.6 SW 7 9 4 5 1010.7 1010.6 0.0
15/02:30am 18.1 18.2 15.4 84 1.6 SE 9 11 5 6 1010.7 1010.6 0.0
15/02:00am 18.9 19.0 15.5 80 2.0 SSE 9 11 5 6 1011.0 1010.9 0.0
15/01:30am 19.9 20.7 15.9 78 2.4 ENE 6 9 3 5 1011.3 1011.2 0.0
15/01:00am 19.2 19.6 15.3 78 2.3 NE 7 11 4 6 1011.4 1011.3 0.0
15/12:30am 19.5 19.6 15.6 78 2.3 NNW 9 15 5 8 1012.0 1011.9 0.0
15/12:00am 20.0 19.7 15.4 75 2.7 N 11 15 6 8 1011.9 1011.8 0.0
 
Date/Time
EDT
Temp
°C
App
Temp
°C
Dew
Point
°C
Rel
Hum
%
Delta-T
°C
Wind Press
QNH
hPa
Press
MSL
hPa
Rain since
9am
mm
Dir  Spd
km/h
Gust
km/h
Spd
kts
Gust
kts
14/11:30pm 20.2 19.5 15.3 73 2.9 N 13 19 7 10 1012.0 1011.9 0.0
14/11:00pm 20.6 19.5 15.2 71 3.2 NNE 15 22 8 12 1012.6 1012.5 0.0
14/10:30pm 20.7 21.6 16.0 74 2.8 E 6 9 3 5 1013.3 1013.2 0.0
14/10:00pm 21.5 21.4 14.9 66 3.9 ENE 9 13 5 7 1014.4 1014.3 0.0
14/09:30pm 21.7 22.0 15.1 66 3.9 NE 7 15 4 8 1014.5 1014.4 0.0
14/09:00pm 21.8 20.0 14.5 63 4.3 NNE 17 24 9 13 1013.4 1013.3 0.0
14/08:30pm 22.8 21.1 13.7 56 5.3 N 15 19 8 10 1013.7 1013.6 0.0
14/08:15pm 23.2 21.4 13.4 54 5.7 N 15 19 8 10 1013.5 1013.4 0.0
14/08:00pm 23.9 22.4 13.2 51 6.2 NNE 13 17 7 9 1013.3 1013.2 0.0
14/07:30pm 23.9 22.8 14.4 55 5.6 SE 13 22 7 12 1013.1 1013.0 0.0
14/07:00pm 24.6 22.1 13.5 50 6.5 SE 19 28 10 15 1013.5 1013.4 0.0
14/06:30pm 24.9 21.7 14.3 51 6.3 SSE 24 32 13 17 1013.4 1013.3 0.0
14/06:00pm 25.5 22.9 13.2 46 7.2 SE 19 28 10 15 1013.1 1013.0 0.0
14/05:30pm 25.4 21.1 11.9 43 7.7 SSE 26 32 14 17 1013.3 1013.2 0.0
14/05:00pm 26.7 22.1 11.2 38 8.8 SSE 26 32 14 17 1013.7 1013.6 0.0
14/04:30pm 25.8 20.4 9.4 35 9.0 SSE 28 33 15 18 1013.9 1013.8 0.0
14/04:00pm 26.1 20.5 8.8 33 9.4 SSE 28 35 15 19 1014.2 1014.1 0.0
14/03:30pm 26.1 21.3 8.8 33 9.4 SSE 24 28 13 15 1014.2 1014.1 0.0
14/03:00pm 25.6 20.0 7.2 31 9.7 SE 26 32 14 17 1014.3 1014.2 0.0
14/02:30pm 25.7 19.1 6.2 28 10.1 SE 30 37 16 20 1014.8 1014.7 0.0
14/02:00pm 25.6 19.8 6.3 29 10.0 SE 26 33 14 18 1014.9 1014.8 0.0
14/01:30pm 25.2 19.8 6.5 30 9.7 SE 24 32 13 17 1015.2 1015.1 0.0
14/01:00pm 24.0 18.6 6.3 32 9.1 SSE 24 30 13 16 1015.6 1015.5 0.0
14/12:30pm 23.7 18.8 6.9 34 8.7 SE 22 30 12 16 1016.1 1016.1 0.0
14/12:00pm 23.0 18.2 9.0 41 7.5 SE 24 30 13 16 1016.7 1016.7 0.0
14/11:30am 23.1 19.7 10.6 45 6.9 SE 19 26 10 14 1017.2 1017.2 0.0
14/11:00am 22.2 19.2 10.5 47 6.4 SE 17 22 9 12 1017.3 1017.3 0.0
14/10:30am 21.9 18.7 9.9 46 6.5 SSE 17 22 9 12 1017.7 1017.7 0.0
14/10:00am 21.5 19.6 9.1 45 6.6 SE 9 15 5 8 1018.0 1018.0 0.0
14/09:30am 21.3 19.7 10.2 49 6.0 ENE 9 13 5 7 1018.5 1018.5 0.0
14/09:00am 19.6 18.4 9.4 51 5.4 S 6 9 3 5 1019.0 1019.0 0.0
14/08:30am 18.7 16.9 9.6 55 4.8 WNW 9 13 5 7 1019.1 1019.1 0.0
14/08:00am 17.5 16.3 9.7 60 4.1 N 6 9 3 5 1019.1 1019.1 0.0
14/07:30am 16.4 14.8 10.1 66 3.3 NW 9 11 5 6 1019.3 1019.3 0.0
14/07:00am 15.5 14.0 10.4 71 2.7 NW 9 11 5 6 1019.4 1019.4 0.0
14/06:30am 14.0 12.8 11.6 85 1.3 N 9 13 5 7 1019.3 1019.3 0.0
14/06:00am 14.1 14.5 11.3 83 1.5 CALM 0 0 0 0 1019.2 1019.2 0.0
14/05:30am 14.1 12.3 10.9 81 1.7 NNW 11 13 6 7 1019.1 1019.1 0.0
14/05:00am 13.1 11.9 10.4 84 1.4 WNW 7 11 4 6 1018.9 1018.9 0.0
14/04:30am 13.6 10.7 11.1 85 1.3 NW 17 20 9 11 1018.8 1018.8 0.0
14/04:00am 13.5 11.0 11.0 85 1.3 NW 15 20 8 11 1018.8 1018.8 0.0
14/03:30am 14.1 12.0 11.1 82 1.6 NW 13 15 7 8 1019.1 1019.1 0.0
14/03:00am 14.5 12.6 11.7 83 1.5 NW 13 15 7 8 1019.5 1019.5 0.0
14/02:30am 14.7 12.8 11.9 83 1.5 NW 13 17 7 9 1020.1 1020.1 0.0
14/02:00am 15.8 14.6 11.7 76 2.2 N 9 13 5 7 1020.2 1020.2 0.0
14/01:30am 15.8 14.6 11.7 76 2.2 N 9 13 5 7 1020.7 1020.7 0.0
14/01:00am 16.7 14.8 11.7 72 2.7 NNE 13 22 7 12 1020.8 1020.8 0.0
14/12:30am 16.9 15.1 12.0 73 2.7 NNE 13 17 7 9 1021.1 1021.1 0.0
14/12:00am 16.4 16.1 11.6 73 2.6 WSW 4 7 2 4 1021.4 1021.4 0.0
 
Date/Time
EDT
Temp
°C
App
Temp
°C
Dew
Point
°C
Rel
Hum
%
Delta-T
°C
Wind Press
QNH
hPa
Press
MSL
hPa
Rain since
9am
mm
Dir  Spd
km/h
Gust
km/h
Spd
kts
Gust
kts
13/11:30pm 16.4 15.7 11.4 72 2.7 ENE 6 9 3 5 1021.7 1021.7 0.0
13/11:00pm 16.5 15.1 10.9 69 3.0 E 9 13 5 7 1022.0 1022.0 0.0
13/10:30pm 17.1 15.7 10.9 67 3.3 E 9 17 5 9 1022.3 1022.3 0.0
13/10:00pm 17.0 15.7 11.2 68 3.1 SSW 9 13 5 7 1022.6 1022.6 0.0
13/09:30pm 17.9 16.2 11.2 65 3.6 NE 11 15 6 8 1022.5 1022.5 0.0
13/09:00pm 19.0 16.9 11.3 61 4.2 NE 13 19 7 10 1022.4 1022.4 0.0
13/08:30pm 19.8 18.2 10.1 53 5.2 ESE 9 13 5 7 1022.3 1022.3 0.0
13/08:00pm 19.9 16.9 11.8 59 4.5 SSE 19 26 10 14 1022.1 1022.1 0.0
13/07:30pm 20.2 16.5 10.1 52 5.4 SE 20 30 11 16 1022.1 1022.1 0.0
13/07:00pm 21.3 17.4 9.3 46 6.4 SE 20 28 11 15 1022.1 1022.1 0.0
13/06:30pm 21.4 17.7 9.4 46 6.4 SE 19 28 10 15 1022.0 1022.0 0.0
13/06:00pm 22.1 18.2 9.4 44 6.8 SE 20 28 11 15 1022.0 1022.0 0.0
13/05:30pm 20.7 16.0 10.8 53 5.4 S 26 39 14 21 1022.1 1022.1 0.0
13/05:00pm 20.5 14.9 10.1 51 5.6 S 30 37 16 20 1022.3 1022.3 0.0
13/04:30pm 20.7 14.9 9.4 48 6.0 S 30 39 16 21 1022.4 1022.4 0.0
13/04:00pm 22.3 16.1 7.9 39 7.5 SSE 30 37 16 20 1022.4 1022.4 0.0
13/03:30pm 22.3 16.6 8.2 40 7.4 SSE 28 33 15 18 1022.5 1022.5 0.0
13/03:00pm 21.8 16.3 5.8 35 8.0 SSE 24 33 13 18 1022.6 1022.6 0.0
13/02:30pm 21.9 15.8 4.8 32 8.4 SSE 26 30 14 16 1022.9 1022.9 0.0
13/02:00pm 22.2 16.1 2.7 27 9.2 SSE 24 28 13 15 1023.2 1023.2 0.0

Other Formats:

Comma delimited format used in spreadsheet applications
http://www.bom.gov.au/fwo/IDT60801/IDT60801.94975.axf

JavaScript Object Notation format (JSON) in row-major order
http://www.bom.gov.au/fwo/IDT60801/IDT60801.94975.json